Time;durP1;ratioP1;P1;durP2;ratioP2;P2;SDS_P1;SDS_P2;PMS_P1;PMS_P2;Temp;Humidity;BMP_temperature;BMP_pressure;BME280_temperature;BME280_humidity;BME280_pressure;Samples;Min_cycle;Max_cycle;Signal;HPM_P1;HPM_P2
2021/07/01 00:01:54;;;;;;;28.52;14.50;;;14.00;99.90;;;;;;5033762;28;20029;-68
2021/07/01 00:04:21;;;;;;;25.35;14.95;;;14.00;99.90;;;;;;5033668;28;20022;-68
2021/07/01 00:06:47;;;;;;;29.15;14.38;;;14.00;99.90;;;;;;5033663;28;20094;-68
2021/07/01 00:09:17;;;;;;;23.67;14.10;;;14.00;99.90;;;;;;5032382;28;20025;-68
2021/07/01 00:11:45;;;;;;;21.02;12.88;;;14.00;99.90;;;;;;5033479;28;20100;-68
2021/07/01 00:14:11;;;;;;;19.80;12.93;;;14.00;99.90;;;;;;5032985;28;20053;-67
2021/07/01 00:16:37;;;;;;;26.08;13.77;;;14.00;99.90;;;;;;5033868;28;20049;-68
2021/07/01 00:19:04;;;;;;;24.70;12.57;;;13.90;99.90;;;;;;5032082;28;20380;-68
2021/07/01 00:21:29;;;;;;;27.30;12.55;;;13.90;99.90;;;;;;5033397;28;20033;-68
2021/07/01 00:23:55;;;;;;;24.80;11.65;;;13.90;99.90;;;;;;5033190;28;20036;-68
2021/07/01 00:26:21;;;;;;;24.23;11.35;;;13.90;99.90;;;;;;5033310;28;20104;-68
2021/07/01 00:28:46;;;;;;;26.02;12.73;;;13.90;99.90;;;;;;5033120;28;20021;-68
2021/07/01 00:31:12;;;;;;;20.17;11.88;;;13.90;99.90;;;;;;5033449;28;20498;-68
2021/07/01 00:33:37;;;;;;;25.98;11.73;;;13.90;99.90;;;;;;5033614;28;20021;-68
2021/07/01 00:36:03;;;;;;;21.58;12.38;;;13.90;99.90;;;;;;5033414;28;20056;-68
2021/07/01 00:38:29;;;;;;;23.25;12.60;;;13.90;99.90;;;;;;5032936;28;20072;-68
2021/07/01 00:40:56;;;;;;;25.73;12.13;;;13.90;99.90;;;;;;5018442;28;20029;-68
2021/07/01 00:43:21;;;;;;;31.77;13.43;;;13.90;99.90;;;;;;5013437;28;20041;-68
2021/07/01 00:45:47;;;;;;;25.13;12.18;;;13.90;99.90;;;;;;5013565;28;20084;-68
2021/07/01 00:48:13;;;;;;;31.33;13.00;;;13.90;99.90;;;;;;5013587;28;20057;-68
2021/07/01 00:50:38;;;;;;;20.95;11.10;;;13.90;99.90;;;;;;5013316;28;20120;-68
2021/07/01 00:53:04;;;;;;;22.50;11.27;;;13.80;99.90;;;;;;5013431;28;20373;-68
2021/07/01 00:55:30;;;;;;;24.13;11.70;;;13.80;99.90;;;;;;5017528;28;20033;-68
2021/07/01 00:57:55;;;;;;;22.70;11.98;;;13.80;99.90;;;;;;5017490;28;20439;-68
2021/07/01 01:00:43;;;;;;;26.17;13.15;;;13.80;99.90;;;;;;5018741;28;20461;-68
2021/07/01 01:03:08;;;;;;;21.92;11.93;;;13.80;99.90;;;;;;5037004;28;20024;-68
2021/07/01 01:05:35;;;;;;;22.00;11.75;;;13.80;99.90;;;;;;5036792;28;20095;-68
2021/07/01 01:08:00;;;;;;;21.35;11.43;;;13.90;99.90;;;;;;5036699;28;20033;-68
2021/07/01 01:10:26;;;;;;;32.42;12.38;;;13.80;99.90;;;;;;5036878;28;20021;-69
2021/07/01 01:12:51;;;;;;;27.02;11.85;;;13.80;99.90;;;;;;5037128;28;20109;-68
2021/07/01 01:15:17;;;;;;;26.42;12.00;;;13.80;99.90;;;;;;5036470;28;20068;-68
2021/07/01 01:17:44;;;;;;;26.65;11.30;;;13.80;99.90;;;;;;5036798;28;20488;-68
2021/07/01 01:20:13;;;;;;;24.85;11.40;;;13.80;99.90;;;;;;5036620;28;20119;-68
2021/07/01 01:22:39;;;;;;;28.75;12.48;;;13.80;99.90;;;;;;5036506;28;20037;-68
2021/07/01 01:25:06;;;;;;;26.10;12.05;;;13.80;99.90;;;;;;5036982;28;20030;-68
2021/07/01 01:27:31;;;;;;;29.50;13.35;;;13.90;99.90;;;;;;5036409;28;20040;-67
2021/07/01 01:29:57;;;;;;;23.52;11.13;;;13.90;99.90;;;;;;5035098;28;20404;-68
2021/07/01 01:32:22;;;;;;;29.08;12.35;;;13.90;99.90;;;;;;5036463;28;20033;-67
2021/07/01 01:34:48;;;;;;;30.40;14.02;;;13.90;99.90;;;;;;5036408;28;20439;-68
2021/07/01 01:37:14;;;;;;;26.63;13.50;;;13.90;99.90;;;;;;5036155;28;20033;-67
2021/07/01 01:39:40;;;;;;;29.58;15.57;;;13.80;99.90;;;;;;5035937;28;20033;-67
2021/07/01 01:42:05;;;;;;;28.20;14.63;;;13.90;99.90;;;;;;5036215;28;20494;-68
2021/07/01 01:44:31;;;;;;;29.85;14.48;;;13.80;99.90;;;;;;5027059;28;20034;-67
2021/07/01 01:46:57;;;;;;;30.75;14.57;;;13.80;99.90;;;;;;5016401;28;20026;-67
2021/07/01 01:49:22;;;;;;;28.00;14.63;;;13.80;99.90;;;;;;5016271;28;20100;-67
2021/07/01 01:51:48;;;;;;;29.45;12.20;;;13.80;99.90;;;;;;5016144;28;20029;-67
2021/07/01 01:54:13;;;;;;;22.95;11.50;;;13.80;99.90;;;;;;5031518;28;20064;-67
2021/07/01 01:56:46;;;;;;;31.05;13.38;;;13.80;99.90;;;;;;5016190;28;20361;-67
2021/07/01 01:59:12;;;;;;;;;;;13.70;99.90;;;;;;5021078;28;20025;-67
2021/07/01 02:01:38;;;;;;;23.55;9.85;;;13.60;99.90;;;;;;5035845;28;19959;-67
2021/07/01 02:04:04;;;;;;;23.35;10.27;;;13.60;99.90;;;;;;5034524;28;20503;-67
2021/07/01 02:06:30;;;;;;;30.25;11.55;;;13.60;99.90;;;;;;5034513;28;20028;-67
2021/07/01 02:08:56;;;;;;;19.88;10.27;;;13.50;99.90;;;;;;5035747;28;20028;-67
2021/07/01 02:11:21;;;;;;;27.55;12.00;;;13.50;99.90;;;;;;5034441;28;20021;-67
2021/07/01 02:13:47;;;;;;;27.52;11.48;;;13.50;99.90;;;;;;5035477;28;20057;-67
2021/07/01 02:16:12;;;;;;;22.67;11.23;;;13.50;99.90;;;;;;5035595;28;20391;-67
2021/07/01 02:18:38;;;;;;;26.45;11.75;;;13.50;99.90;;;;;;5034299;28;20029;-67
2021/07/01 02:21:06;;;;;;;24.90;12.65;;;13.50;99.90;;;;;;5035384;28;20028;-67
2021/07/01 02:23:32;;;;;;;24.10;11.48;;;13.50;99.90;;;;;;5035507;28;20468;-67
2021/07/01 02:25:57;;;;;;;29.52;14.02;;;13.60;99.90;;;;;;5034099;28;20029;-67
2021/07/01 02:28:23;;;;;;;21.92;11.80;;;13.60;99.90;;;;;;5035306;28;20030;-68
2021/07/01 02:30:48;;;;;;;31.33;12.93;;;13.60;99.90;;;;;;5035387;28;20455;-67
2021/07/01 02:33:14;;;;;;;28.88;13.10;;;13.60;99.90;;;;;;5035363;28;20077;-67
2021/07/01 02:35:39;;;;;;;29.95;14.30;;;13.60;99.90;;;;;;5035054;28;20044;-67
2021/07/01 02:38:05;;;;;;;33.33;13.98;;;13.60;99.90;;;;;;5020650;28;20512;-67
2021/07/01 02:40:31;;;;;;;34.28;14.23;;;13.60;99.90;;;;;;5015676;28;20040;-67
2021/07/01 02:42:57;;;;;;;36.80;14.55;;;13.60;99.90;;;;;;5015646;28;20022;-67
2021/07/01 02:45:22;;;;;;;32.05;14.63;;;13.70;99.90;;;;;;5015259;28;20057;-67
2021/07/01 02:47:48;;;;;;;34.70;15.55;;;13.60;99.90;;;;;;5015265;28;20091;-67
2021/07/01 02:50:13;;;;;;;32.35;16.63;;;13.70;99.90;;;;;;5014994;28;20026;-68
2021/07/01 02:52:39;;;;;;;31.85;14.95;;;13.60;99.90;;;;;;5015418;28;20034;-67
2021/07/01 02:55:07;;;;;;;28.90;13.75;;;13.60;99.90;;;;;;5015252;28;20037;-68
2021/07/01 02:57:32;;;;;;;26.20;14.13;;;13.60;99.90;;;;;;5022924;28;20558;-67
2021/07/01 02:59:58;;;;;;;31.23;12.65;;;13.60;99.90;;;;;;5034724;28;20112;-67
2021/07/01 03:02:23;;;;;;;28.05;13.02;;;13.60;99.90;;;;;;5034669;28;20083;-67
2021/07/01 03:04:49;;;;;;;31.35;12.70;;;13.60;99.90;;;;;;5034612;28;20029;-67
2021/07/01 03:07:14;;;;;;;24.08;11.43;;;13.50;99.90;;;;;;5034539;28;20024;-67
2021/07/01 03:09:40;;;;;;;30.27;12.30;;;13.50;99.90;;;;;;5034629;28;20037;-67
2021/07/01 03:12:06;;;;;;;27.58;11.02;;;13.40;99.90;;;;;;5034552;28;20025;-67
2021/07/01 03:14:32;;;;;;;22.55;10.77;;;13.40;99.90;;;;;;5034183;28;20530;-67
2021/07/01 03:16:57;;;;;;;24.90;11.15;;;13.40;99.90;;;;;;5034354;28;20033;-67
2021/07/01 03:19:23;;;;;;;24.63;11.45;;;13.40;99.90;;;;;;5034310;28;20476;-67
2021/07/01 03:21:49;;;;;;;26.15;10.98;;;13.40;99.90;;;;;;5033045;28;20045;-67
2021/07/01 03:24:16;;;;;;;22.05;11.00;;;13.40;99.90;;;;;;5034559;28;20017;-67
2021/07/01 03:26:41;;;;;;;23.15;10.20;;;13.40;99.90;;;;;;5034070;28;20028;-67
2021/07/01 03:29:08;;;;;;;25.80;11.82;;;13.30;99.90;;;;;;5034337;28;20029;-67
2021/07/01 03:31:33;;;;;;;21.90;11.02;;;13.30;99.90;;;;;;5034225;28;20031;-67
2021/07/01 03:33:59;;;;;;;25.45;11.65;;;13.30;99.90;;;;;;5034340;28;20116;-67
2021/07/01 03:36:24;;;;;;;22.98;11.73;;;13.30;99.90;;;;;;5022454;28;20030;-67
2021/07/01 03:38:50;;;;;;;18.95;10.73;;;13.30;99.90;;;;;;5014193;28;20022;-67
2021/07/01 03:41:16;;;;;;;22.95;10.90;;;13.30;99.90;;;;;;5014454;28;20408;-68
2021/07/01 03:43:45;;;;;;;24.60;10.45;;;13.30;99.90;;;;;;5014294;28;20384;-68
2021/07/01 03:46:13;;;;;;;25.95;10.20;;;13.30;99.90;;;;;;5014352;28;20023;-68
2021/07/01 03:48:38;;;;;;;18.55;10.05;;;13.30;99.90;;;;;;5014168;28;20042;-67
2021/07/01 03:51:06;;;;;;;22.63;9.95;;;13.30;99.90;;;;;;5012734;28;20022;-67
2021/07/01 03:53:32;;;;;;;23.52;10.00;;;13.30;99.90;;;;;;5014031;28;20502;-67
2021/07/01 03:55:57;;;;;;;25.60;9.77;;;13.30;99.90;;;;;;5012770;28;20397;-68
2021/07/01 03:58:23;;;;;;;25.08;9.50;;;13.30;99.90;;;;;;5033212;28;20017;-68
2021/07/01 04:00:49;;;;;;;19.23;10.00;;;13.30;99.90;;;;;;5032347;28;20022;-68
2021/07/01 04:03:14;;;;;;;18.17;9.45;;;13.30;99.90;;;;;;5033564;28;20022;-68
2021/07/01 04:05:40;;;;;;;23.73;9.30;;;13.20;99.90;;;;;;5033643;28;20499;-67
2021/07/01 04:08:05;;;;;;;21.75;10.13;;;13.10;99.90;;;;;;5033551;28;20112;-67
2021/07/01 04:10:31;;;;;;;19.65;10.35;;;13.10;99.90;;;;;;5032381;28;20029;-68
2021/07/01 04:12:56;;;;;;;21.02;9.00;;;13.10;99.90;;;;;;5033530;28;20026;-68
2021/07/01 04:15:22;;;;;;;23.45;10.15;;;13.10;99.90;;;;;;5031844;28;20045;-67
2021/07/01 04:17:47;;;;;;;17.98;9.65;;;13.10;99.90;;;;;;5033507;28;20044;-68
2021/07/01 04:20:13;;;;;;;23.95;10.02;;;13.10;99.90;;;;;;5033202;28;20074;-68
2021/07/01 04:22:39;;;;;;;16.13;8.18;;;13.10;99.90;;;;;;5033354;28;20064;-67
2021/07/01 04:25:05;;;;;;;22.13;10.30;;;13.10;99.90;;;;;;5033265;28;20033;-67
2021/07/01 04:27:30;;;;;;;21.85;11.48;;;13.10;99.90;;;;;;5033084;28;20147;-68
2021/07/01 04:29:56;;;;;;;18.50;10.45;;;13.10;99.90;;;;;;5032800;28;20061;-67
2021/07/01 04:32:21;;;;;;;25.63;10.57;;;13.20;99.90;;;;;;5033527;28;20030;-68
2021/07/01 04:34:48;;;;;;;30.15;11.68;;;13.20;99.90;;;;;;5032856;28;20037;-67
2021/07/01 04:37:13;;;;;;;19.98;10.73;;;13.10;99.90;;;;;;5033249;28;20030;-68
2021/07/01 04:39:39;;;;;;;30.55;11.95;;;13.10;99.90;;;;;;5033275;28;20123;-67
2021/07/01 04:42:04;;;;;;;20.70;11.48;;;13.10;99.90;;;;;;5033346;28;20392;-67
2021/07/01 04:44:30;;;;;;;21.73;10.48;;;13.10;99.90;;;;;;5033270;28;20018;-67
2021/07/01 04:46:56;;;;;;;21.83;11.07;;;13.10;99.90;;;;;;5033583;28;20053;-67
2021/07/01 04:49:21;;;;;;;23.02;9.98;;;13.10;99.90;;;;;;5032974;28;20550;-67
2021/07/01 04:51:47;;;;;;;23.02;9.75;;;13.10;99.90;;;;;;5033286;28;20057;-68
2021/07/01 04:54:12;;;;;;;17.08;9.60;;;13.10;99.90;;;;;;5031892;28;20116;-67
2021/07/01 04:56:47;;;;;;;18.20;8.43;;;13.10;99.90;;;;;;5032789;28;20017;-67
2021/07/01 04:59:14;;;;;;;14.30;8.50;;;13.10;99.90;;;;;;5032921;28;20026;-67
2021/07/01 05:01:40;;;;;;;20.38;9.32;;;13.20;99.90;;;;;;5031577;28;20036;-68
2021/07/01 05:04:07;;;;;;;22.08;8.55;;;13.20;99.90;;;;;;5032736;28;20025;-68
2021/07/01 05:06:33;;;;;;;35.15;9.65;;;13.20;99.90;;;;;;5033103;28;20021;-67
2021/07/01 05:08:59;;;;;;;19.35;8.40;;;13.20;99.90;;;;;;5033136;28;20095;-68
2021/07/01 05:11:24;;;;;;;19.17;8.23;;;13.30;99.90;;;;;;5031683;28;20021;-68
2021/07/01 05:13:50;;;;;;;19.38;8.35;;;13.30;99.90;;;;;;5032551;28;20107;-68
2021/07/01 05:16:15;;;;;;;19.40;8.90;;;13.30;99.90;;;;;;5032823;28;20104;-67
2021/07/01 05:18:41;;;;;;;18.42;9.18;;;13.30;99.90;;;;;;5032573;28;20032;-68
2021/07/01 05:21:06;;;;;;;19.05;8.45;;;13.30;99.90;;;;;;5033282;28;20033;-68
2021/07/01 05:23:32;;;;;;;19.35;8.50;;;13.40;99.90;;;;;;5032819;28;20079;-68
2021/07/01 05:25:57;;;;;;;17.98;7.80;;;13.40;99.90;;;;;;5032539;28;20022;-68
2021/07/01 05:28:23;;;;;;;19.55;8.13;;;13.50;99.90;;;;;;5032854;28;20033;-68
2021/07/01 05:30:49;;;;;;;25.63;9.35;;;13.50;99.90;;;;;;5031511;28;20030;-67
2021/07/01 05:33:15;;;;;;;17.90;8.15;;;13.60;99.90;;;;;;5023783;28;20101;-68
2021/07/01 05:35:41;;;;;;;19.25;8.65;;;13.60;99.90;;;;;;5012996;28;20563;-67
2021/07/01 05:38:06;;;;;;;13.85;7.72;;;13.60;99.90;;;;;;5027704;28;20081;-68
2021/07/01 05:40:32;;;;;;;21.27;8.25;;;13.60;99.90;;;;;;5035079;28;20072;-68
2021/07/01 05:42:58;;;;;;;16.08;7.63;;;13.60;99.90;;;;;;5036285;28;20028;-68
2021/07/01 05:45:23;;;;;;;18.08;7.28;;;13.60;99.90;;;;;;5036534;28;20097;-68
2021/07/01 05:47:49;;;;;;;15.65;7.80;;;13.60;99.90;;;;;;5036156;28;20034;-68
2021/07/01 05:50:14;;;;;;;18.77;9.07;;;13.60;99.90;;;;;;5034741;28;20100;-68
2021/07/01 05:52:43;;;;;;;18.63;7.85;;;13.60;99.90;;;;;;5036026;28;20017;-68
2021/07/01 05:55:10;;;;;;;15.82;6.63;;;13.60;99.90;;;;;;5035971;28;20025;-68
2021/07/01 05:57:35;;;;;;;18.50;7.57;;;13.60;99.80;;;;;;5036042;28;20052;-68
2021/07/01 06:00:01;;;;;;;17.05;6.78;;;13.60;99.80;;;;;;5035870;28;20057;-67
2021/07/01 06:02:26;;;;;;;15.20;8.13;;;13.60;99.80;;;;;;5035806;28;20071;-68
2021/07/01 06:04:52;;;;;;;18.42;7.07;;;13.70;99.70;;;;;;5035752;28;20029;-68
2021/07/01 06:07:22;;;;;;;14.10;7.60;;;13.60;99.70;;;;;;5034463;28;20476;-68
2021/07/01 06:09:51;;;;;;;19.45;8.32;;;13.70;99.70;;;;;;5035789;28;20029;-68
2021/07/01 06:12:17;;;;;;;17.90;8.05;;;13.60;99.70;;;;;;5035727;28;20069;-68
2021/07/01 06:14:44;;;;;;;19.38;8.30;;;13.70;99.70;;;;;;5035326;28;20080;-68
2021/07/01 06:17:11;;;;;;;20.10;7.80;;;13.70;99.60;;;;;;5035418;28;20056;-68
2021/07/01 06:19:38;;;;;;;17.90;7.88;;;13.70;99.60;;;;;;5035540;28;20472;-68
2021/07/01 06:22:03;;;;;;;19.33;7.43;;;13.70;99.60;;;;;;5035568;28;20031;-68
2021/07/01 06:24:29;;;;;;;19.05;8.10;;;13.70;99.60;;;;;;5036116;28;20367;-68
2021/07/01 06:26:59;;;;;;;19.33;7.95;;;13.70;99.60;;;;;;5035249;28;20029;-68
2021/07/01 06:29:26;;;;;;;15.30;7.55;;;13.70;99.50;;;;;;5034097;28;20029;-68
2021/07/01 06:31:51;;;;;;;16.17;7.28;;;13.80;99.50;;;;;;5034992;28;20053;-68
2021/07/01 06:34:17;;;;;;;14.77;6.60;;;13.80;99.80;;;;;;5035374;28;20068;-68
2021/07/01 06:36:47;;;;;;;16.42;7.30;;;13.80;99.50;;;;;;5034263;28;20032;-67
2021/07/01 06:39:14;;;;;;;18.65;6.93;;;13.80;99.50;;;;;;5015243;28;20112;-68
2021/07/01 06:41:44;;;;;;;14.88;7.22;;;13.80;99.40;;;;;;5015399;28;20458;-68
2021/07/01 06:44:12;;;;;;;19.75;7.20;;;13.80;99.40;;;;;;5015469;28;20105;-68
2021/07/01 06:46:39;;;;;;;18.67;8.35;;;13.70;99.40;;;;;;5015150;28;20018;-67
2021/07/01 06:49:05;;;;;;;18.15;7.40;;;13.70;99.40;;;;;;5015466;28;20041;-68
2021/07/01 06:51:39;;;;;;;16.08;7.10;;;13.70;99.50;;;;;;5014624;28;20026;-68
2021/07/01 06:54:11;;;;;;;16.75;5.80;;;13.70;99.50;;;;;;5015341;28;20033;-68
2021/07/01 06:56:39;;;;;;;17.60;7.65;;;13.70;99.50;;;;;;5015173;28;20036;-68
2021/07/01 06:59:06;;;;;;;15.55;6.90;;;13.80;99.50;;;;;;5015013;28;20392;-68
2021/07/01 07:01:32;;;;;;;13.55;5.95;;;13.80;99.60;;;;;;5015200;28;20484;-68
2021/07/01 07:03:59;;;;;;;14.93;7.13;;;13.90;99.60;;;;;;5015050;28;20026;-68
2021/07/01 07:06:26;;;;;;;12.38;7.05;;;14.00;99.60;;;;;;5014857;28;20365;-68
2021/07/01 07:08:52;;;;;;;13.25;6.28;;;14.00;99.60;;;;;;5014907;28;20026;-68
2021/07/01 07:11:17;;;;;;;13.80;6.78;;;14.00;99.60;;;;;;5014806;28;20117;-68
2021/07/01 07:13:43;;;;;;;13.50;6.50;;;14.10;99.50;;;;;;5030176;28;20050;-68
2021/07/01 07:16:10;;;;;;;12.90;5.72;;;14.10;99.50;;;;;;5016886;28;20030;-68
2021/07/01 07:18:37;;;;;;;13.70;6.80;;;14.10;99.40;;;;;;5034455;28;20100;-68
2021/07/01 07:21:16;;;;;;;14.13;7.10;;;14.20;99.40;;;;;;5034378;28;20025;-68
2021/07/01 07:23:43;;;;;;;14.65;6.68;;;14.20;99.30;;;;;;5034428;28;20388;-68
2021/07/01 07:26:17;;;;;;;15.38;6.50;;;14.20;99.30;;;;;;5034021;28;20472;-68
2021/07/01 07:28:43;;;;;;;11.13;6.57;;;14.30;99.30;;;;;;5033096;28;20025;-68
2021/07/01 07:31:17;;;;;;;11.70;5.78;;;14.30;99.40;;;;;;5034026;28;20029;-68
2021/07/01 07:33:43;;;;;;;15.13;6.97;;;14.30;99.30;;;;;;5034259;28;20089;-68
2021/07/01 07:36:10;;;;;;;14.85;6.18;;;14.30;99.30;;;;;;5034126;28;20117;-68
2021/07/01 07:38:36;;;;;;;16.10;6.63;;;14.30;99.30;;;;;;5033962;28;20029;-67
2021/07/01 07:41:01;;;;;;;16.95;6.90;;;14.30;99.20;;;;;;5033749;28;20095;-68
2021/07/01 07:43:27;;;;;;;14.43;6.60;;;14.30;99.20;;;;;;5034010;28;20376;-68
2021/07/01 07:45:54;;;;;;;16.35;7.18;;;14.40;99.50;;;;;;5034134;28;20474;-68
2021/07/01 07:48:20;;;;;;;20.45;7.95;;;14.40;99.20;;;;;;5032826;28;20021;-68
2021/07/01 07:50:51;;;;;;;14.07;6.55;;;14.40;99.20;;;;;;5033832;28;20037;-67
2021/07/01 07:53:29;;;;;;;16.73;7.18;;;14.30;99.20;;;;;;5033756;28;20033;-69
2021/07/01 07:56:09;;;;;;;17.40;6.32;;;14.40;99.20;;;;;;5034018;28;20037;-68
2021/07/01 07:58:39;;;;;;;18.23;7.15;;;14.30;99.10;;;;;;5034125;28;20024;-68
2021/07/01 08:01:08;;;;;;;14.48;7.72;;;14.30;99.20;;;;;;5033858;28;20033;-68
2021/07/01 08:03:37;;;;;;;18.10;8.20;;;14.30;99.20;;;;;;5032861;28;20017;-68
2021/07/01 08:06:05;;;;;;;15.73;6.68;;;14.40;99.20;;;;;;5033295;28;20033;-68
2021/07/01 08:08:32;;;;;;;12.70;7.25;;;14.40;99.20;;;;;;5033800;28;20025;-68
2021/07/01 08:10:59;;;;;;;17.10;7.68;;;14.40;99.20;;;;;;5033808;28;20028;-68
2021/07/01 08:13:26;;;;;;;16.48;6.50;;;14.50;99.20;;;;;;5033396;28;20025;-68
2021/07/01 08:15:52;;;;;;;15.40;7.35;;;14.40;99.10;;;;;;5033535;28;20036;-68
2021/07/01 08:18:39;;;;;;;12.43;7.25;;;14.50;99.10;;;;;;5033445;28;20033;-68
2021/07/01 08:21:10;;;;;;;17.63;7.00;;;14.50;99.10;;;;;;5033538;28;20036;-68
2021/07/01 08:23:36;;;;;;;14.82;6.47;;;14.50;99.30;;;;;;5033759;28;20018;-68
2021/07/01 08:26:02;;;;;;;22.17;7.45;;;14.60;99.10;;;;;;5033380;28;20472;-68
2021/07/01 08:28:29;;;;;;;16.55;7.68;;;14.60;99.00;;;;;;5033082;28;20022;-68
2021/07/01 08:31:04;;;;;;;16.77;7.53;;;14.70;99.00;;;;;;5033258;28;20025;-68
2021/07/01 08:33:34;;;;;;;17.60;6.88;;;14.60;98.90;;;;;;5033527;28;20479;-68
2021/07/01 08:36:01;;;;;;;19.77;8.10;;;14.60;98.90;;;;;;5033360;28;20033;-68
2021/07/01 08:38:27;;;;;;;20.92;7.00;;;14.60;98.90;;;;;;5033008;28;20078;-68
2021/07/01 08:40:59;;;;;;;25.05;8.27;;;14.70;98.90;;;;;;5033067;28;20034;-68
2021/07/01 08:43:26;;;;;;;17.73;6.57;;;14.60;98.80;;;;;;5033462;28;20021;-68
2021/07/01 08:46:13;;;;;;;20.42;7.72;;;14.60;98.80;;;;;;5032907;28;20487;-68
2021/07/01 08:48:51;;;;;;;19.73;7.38;;;14.60;98.90;;;;;;5033199;28;20022;-68
2021/07/01 08:51:19;;;;;;;19.30;7.65;;;14.60;98.90;;;;;;5032040;28;20116;-68
2021/07/01 08:54:14;;;;;;;19.13;7.63;;;14.60;98.90;;;;;;5033084;28;20028;-68
2021/07/01 08:56:41;;;;;;;18.00;8.43;;;14.60;99.00;;;;;;5032995;28;20088;-68
2021/07/01 08:59:09;;;;;;;19.77;7.95;;;14.60;99.00;;;;;;5032990;28;20388;-68
2021/07/01 09:01:40;;;;;;;16.92;8.63;;;14.70;99.00;;;;;;5032936;28;20018;-68
2021/07/01 09:04:13;;;;;;;19.75;8.48;;;14.80;99.10;;;;;;5033002;28;20025;-68
2021/07/01 09:06:39;;;;;;;23.40;8.07;;;14.90;99.00;;;;;;5031445;28;20018;-67
2021/07/01 09:09:10;;;;;;;21.92;9.35;;;15.00;98.90;;;;;;5033168;28;20468;-68
2021/07/01 09:11:40;;;;;;;20.50;8.82;;;15.10;98.70;;;;;;5033159;28;20104;-68
2021/07/01 09:14:09;;;;;;;19.60;8.43;;;15.20;98.60;;;;;;5032853;28;20041;-68
2021/07/01 09:16:36;;;;;;;22.60;8.82;;;15.20;98.60;;;;;;5036714;28;20072;-68
2021/07/01 09:19:03;;;;;;;23.65;9.13;;;15.20;98.50;;;;;;5035222;28;20049;-68
2021/07/01 09:21:29;;;;;;;21.98;8.27;;;15.30;98.40;;;;;;5036565;28;20034;-68
2021/07/01 09:23:57;;;;;;;23.92;9.02;;;15.30;98.40;;;;;;5036666;28;20018;-68
2021/07/01 09:26:24;;;;;;;21.60;9.05;;;15.30;98.20;;;;;;5036564;28;20022;-68
2021/07/01 09:28:52;;;;;;;19.92;8.57;;;15.30;98.10;;;;;;5036289;28;20495;-68
2021/07/01 09:31:20;;;;;;;25.98;8.82;;;15.20;98.10;;;;;;5036787;28;20021;-68
2021/07/01 09:33:48;;;;;;;22.42;8.05;;;15.20;98.10;;;;;;5036300;28;20045;-68
2021/07/01 09:36:15;;;;;;;22.42;9.15;;;15.20;98.20;;;;;;5036435;28;20379;-68
2021/07/01 09:38:45;;;;;;;24.45;9.25;;;15.20;98.10;;;;;;5036100;28;20075;-68
2021/07/01 09:41:12;;;;;;;21.05;9.10;;;15.20;98.00;;;;;;5036267;28;20021;-68
2021/07/01 09:43:44;;;;;;;22.13;8.48;;;15.10;98.00;;;;;;5036178;28;20537;-68
2021/07/01 09:46:13;;;;;;;23.10;9.30;;;15.20;98.10;;;;;;5035926;28;20044;-68
2021/07/01 09:48:46;;;;;;;24.92;9.75;;;15.20;98.10;;;;;;5036270;28;20022;-68
2021/07/01 09:51:13;;;;;;;22.50;8.90;;;15.20;98.00;;;;;;5036144;28;20018;-68
2021/07/01 09:53:39;;;;;;;32.63;11.57;;;15.20;98.00;;;;;;5036122;28;20028;-67
2021/07/01 09:56:10;;;;;;;25.10;9.60;;;15.20;97.80;;;;;;5036516;28;20022;-67
2021/07/01 09:58:49;;;;;;;23.58;9.50;;;15.20;98.00;;;;;;5036064;28;20057;-68
2021/07/01 10:01:23;;;;;;;28.77;8.60;;;15.30;97.90;;;;;;5036139;28;20108;-68
2021/07/01 10:04:00;;;;;;;18.73;7.50;;;15.30;97.90;;;;;;5036238;28;20029;-68
2021/07/01 10:06:26;;;;;;;23.60;8.88;;;15.30;97.80;;;;;;5035993;28;20026;-68
2021/07/01 10:08:52;;;;;;;25.23;9.00;;;15.30;97.80;;;;;;5035948;28;20026;-68
2021/07/01 10:11:35;;;;;;;21.45;8.55;;;15.30;97.80;;;;;;5035528;28;20026;-68
2021/07/01 10:14:07;;;;;;;25.10;10.40;;;15.40;97.80;;;;;;5035479;28;20175;-68
2021/07/01 10:16:34;;;;;;;28.42;9.63;;;15.30;97.70;;;;;;5035708;28;20022;-68
2021/07/01 10:19:03;;;;;;;24.52;8.43;;;15.40;97.70;;;;;;5035495;28;20108;-68
2021/07/01 10:21:29;;;;;;;27.60;9.00;;;15.30;97.70;;;;;;5035621;28;20053;-68
2021/07/01 10:24:11;;;;;;;21.17;8.52;;;15.40;97.60;;;;;;5035399;28;20095;-68
2021/07/01 10:26:50;;;;;;;22.20;8.03;;;15.40;97.60;;;;;;5034455;28;20454;-68
2021/07/01 10:29:17;;;;;;;20.23;8.70;;;15.40;97.60;;;;;;5035554;28;20534;-68
2021/07/01 10:31:56;;;;;;;20.50;8.65;;;15.50;97.50;;;;;;5035394;28;20029;-68
2021/07/01 10:34:23;;;;;;;23.77;8.95;;;15.50;97.50;;;;;;5035157;28;20025;-68
2021/07/01 10:37:12;;;;;;;21.02;8.98;;;15.50;97.30;;;;;;5035342;28;20097;-67
2021/07/01 10:39:39;;;;;;;20.83;8.88;;;15.50;97.40;;;;;;5033844;28;20116;-68
2021/07/01 10:42:05;;;;;;;21.70;8.57;;;15.40;97.40;;;;;;5035032;28;20022;-68
2021/07/01 10:44:31;;;;;;;21.00;8.18;;;15.40;97.40;;;;;;5035083;28;20029;-68
2021/07/01 10:46:57;;;;;;;21.55;8.10;;;15.30;97.30;;;;;;5034915;28;20365;-68
2021/07/01 10:49:35;;;;;;;21.00;7.80;;;15.30;97.40;;;;;;5035467;28;20033;-68
2021/07/01 10:52:05;;;;;;;20.05;7.72;;;15.20;97.30;;;;;;5035084;28;20037;-67
2021/07/01 10:54:30;;;;;;;25.00;9.00;;;15.20;97.40;;;;;;5035119;28;20113;-68
2021/07/01 10:57:05;;;;;;;20.73;7.63;;;15.10;97.50;;;;;;5033640;28;20547;-67
2021/07/01 10:59:51;;;;;;;21.80;7.10;;;15.10;97.60;;;;;;5034601;28;20029;-68
2021/07/01 11:02:49;;;;;;;22.27;7.82;;;15.20;97.70;;;;;;5034836;28;20551;-67
2021/07/01 11:05:15;;;;;;;15.73;8.13;;;15.10;97.80;;;;;;5034971;28;20108;-67
2021/07/01 11:07:46;;;;;;;23.60;9.13;;;15.20;97.80;;;;;;5035148;28;20096;-67
2021/07/01 11:10:13;;;;;;;23.58;9.52;;;15.20;97.90;;;;;;5034828;28;20128;-68
2021/07/01 11:12:44;;;;;;;20.48;8.75;;;15.20;97.90;;;;;;5034440;28;20480;-68
2021/07/01 11:15:10;;;;;;;24.42;10.13;;;15.20;98.00;;;;;;5034261;28;20064;-68
2021/07/01 11:17:39;;;;;;;23.88;8.27;;;15.20;98.00;;;;;;5034410;28;20061;-68
2021/07/01 11:20:34;;;;;;;20.27;8.77;;;15.30;98.10;;;;;;5033183;28;20022;-67
2021/07/01 11:23:02;;;;;;;17.40;8.68;;;15.20;98.00;;;;;;5029832;28;20033;-67
2021/07/01 11:25:40;;;;;;;18.75;8.10;;;15.10;98.00;;;;;;5034273;28;20357;-67
2021/07/01 11:28:23;;;;;;;18.27;8.98;;;15.10;98.20;;;;;;5034314;28;20033;-67
2021/07/01 11:30:58;;;;;;;18.88;8.10;;;15.10;98.20;;;;;;5034009;28;20071;-67
2021/07/01 11:33:24;;;;;;;22.38;9.13;;;15.10;98.30;;;;;;5034461;28;20057;-67
2021/07/01 11:36:00;;;;;;;25.80;9.18;;;15.10;98.30;;;;;;5034191;28;20491;-67
2021/07/01 11:38:31;;;;;;;23.25;10.32;;;15.00;98.50;;;;;;5034109;28;20038;-67
2021/07/01 11:41:00;;;;;;;22.02;8.88;;;15.10;98.60;;;;;;5034059;28;20107;-67
2021/07/01 11:43:28;;;;;;;22.63;9.57;;;15.10;98.70;;;;;;5033856;28;20029;-67
2021/07/01 11:45:53;;;;;;;17.33;9.43;;;15.20;98.70;;;;;;5034231;28;20029;-67
2021/07/01 11:48:22;;;;;;;21.85;9.93;;;15.20;98.70;;;;;;5033999;28;20438;-67
2021/07/01 11:50:49;;;;;;;24.25;10.02;;;15.30;98.70;;;;;;5033884;28;20442;-67
2021/07/01 11:53:19;;;;;;;22.88;9.77;;;15.40;98.80;;;;;;5032611;28;20479;-67
2021/07/01 11:55:46;;;;;;;24.38;9.90;;;15.40;98.70;;;;;;5033885;28;20025;-68
2021/07/01 11:58:11;;;;;;;18.60;9.13;;;15.40;98.70;;;;;;5033641;28;20040;-67
2021/07/01 12:00:37;;;;;;;24.73;9.38;;;15.50;98.80;;;;;;5032495;28;20033;-67
2021/07/01 12:03:04;;;;;;;29.25;11.13;;;15.70;98.80;;;;;;5033649;28;20116;-68
2021/07/01 12:05:32;;;;;;;23.70;10.82;;;15.70;98.60;;;;;;5033704;28;20022;-67
2021/07/01 12:07:58;;;;;;;19.60;10.30;;;15.80;98.60;;;;;;5033660;28;20033;-68
2021/07/01 12:10:24;;;;;;;27.85;11.32;;;15.90;98.70;;;;;;5033574;28;20052;-67
2021/07/01 12:12:51;;;;;;;23.08;9.48;;;16.00;98.60;;;;;;5033373;28;20388;-67
2021/07/01 12:15:17;;;;;;;22.08;10.88;;;16.10;98.50;;;;;;5033251;28;20048;-68
2021/07/01 12:17:54;;;;;;;22.25;10.10;;;16.20;98.50;;;;;;5032374;28;20025;-68
2021/07/01 12:20:30;;;;;;;24.48;10.73;;;16.30;98.40;;;;;;5033462;28;20037;-67
2021/07/01 12:22:56;;;;;;;24.33;10.13;;;16.40;98.20;;;;;;5033153;28;20028;-67
2021/07/01 12:25:25;;;;;;;21.23;9.98;;;16.40;98.20;;;;;;5033316;28;20483;-67
2021/07/01 12:30:47;;;;;;;18.20;9.20;;;16.50;97.80;;;;;;5033421;28;20121;-67
2021/07/01 12:33:48;;;;;;;18.83;8.63;;;16.40;97.50;;;;;;5033382;28;20087;-68
2021/07/01 12:36:22;;;;;;;16.02;8.43;;;16.30;97.70;;;;;;5032129;28;20064;-67
2021/07/01 12:39:06;;;;;;;20.63;9.80;;;16.30;97.80;;;;;;5033057;28;20030;-68
2021/07/01 12:41:37;;;;;;;18.35;8.93;;;16.30;97.60;;;;;;5033263;28;20476;-67